createdAt,value
2023-03-31T00:00:32.596Z,99494.19
2023-03-31T00:03:02.907Z,99496.91
2023-03-31T00:05:33.321Z,99490.97
2023-03-31T00:08:02.097Z,99483.69
2023-03-31T00:10:36.156Z,99470.47
2023-03-31T00:13:04.093Z,99463.38
2023-03-31T00:15:31.748Z,99477.47
2023-03-31T00:18:00.930Z,99468.31
2023-03-31T00:20:30.639Z,99459.09
2023-03-31T00:22:59.005Z,99458.03
2023-03-31T00:25:26.658Z,99468.31
2023-03-31T00:27:54.780Z,99458.31
2023-03-31T00:30:22.474Z,99458.59
2023-03-31T00:32:50.155Z,99467.22
2023-03-31T00:35:19.358Z,99457.53
2023-03-31T00:37:47.232Z,99451.31
2023-03-31T00:40:15.073Z,99423.81
2023-03-31T00:42:43.082Z,99441.34
2023-03-31T00:45:27.514Z,99424.56
2023-03-31T00:47:57.372Z,99425.41
2023-03-31T00:50:29.228Z,99417.31
2023-03-31T00:52:58.588Z,99419.16
2023-03-31T00:55:29.804Z,99408.69
2023-03-31T00:57:58.067Z,99406.81
2023-03-31T01:00:25.810Z,99405.19
2023-03-31T01:02:59.223Z,99404.09
2023-03-31T01:05:31.649Z,99405.44
2023-03-31T01:08:02.191Z,99399.25
2023-03-31T01:10:31.048Z,99392.78
2023-03-31T01:12:58.890Z,99388.97
2023-03-31T01:15:27.042Z,99379.00
2023-03-31T01:17:55.990Z,99371.38
2023-03-31T01:20:36.163Z,99367.41
2023-03-31T01:23:22.619Z,99363.59
2023-03-31T01:26:18.369Z,99359.81
2023-03-31T01:28:48.381Z,99348.88
2023-03-31T01:31:43.910Z,99357.09
2023-03-31T01:34:29.772Z,99348.47
2023-03-31T01:37:17.460Z,99342.97
2023-03-31T01:40:02.292Z,99334.84
2023-03-31T01:42:33.962Z,99340.00
2023-03-31T01:45:05.953Z,99327.13
2023-03-31T01:47:40.483Z,99330.38
2023-03-31T01:50:12.595Z,99333.09
2023-03-31T01:52:45.116Z,99319.50
2023-03-31T01:55:17.628Z,99317.56
2023-03-31T01:57:49.250Z,99315.75
2023-03-31T02:00:18.224Z,99304.56
2023-03-31T02:02:48.760Z,99309.09
2023-03-31T02:05:19.315Z,99303.69
2023-03-31T02:07:50.225Z,99302.16
2023-03-31T02:10:19.720Z,99291.09
2023-03-31T02:12:47.682Z,99292.28
2023-03-31T02:18:06.260Z,99287.25
2023-03-31T02:20:34.602Z,99286.47
2023-03-31T02:23:02.791Z,99291.22
2023-03-31T02:25:35.458Z,99281.13
2023-03-31T02:28:05.106Z,99276.59
2023-03-31T02:30:38.171Z,99274.53
2023-03-31T02:33:06.051Z,99274.53
2023-03-31T02:35:35.200Z,99269.28
2023-03-31T02:38:06.714Z,99269.09
2023-03-31T02:40:36.150Z,99254.31
2023-03-31T02:43:03.993Z,99242.69
2023-03-31T02:45:39.672Z,99240.28
2023-03-31T02:48:08.642Z,99236.22
2023-03-31T02:50:40.299Z,99222.09
2023-03-31T02:53:12.333Z,99217.81
2023-03-31T02:55:53.368Z,99217.16
2023-03-31T02:58:39.962Z,99211.09
2023-03-31T03:01:12.994Z,99207.81
2023-03-31T03:03:46.044Z,99193.84
2023-03-31T03:06:22.202Z,99206.44
2023-03-31T03:09:01.404Z,99182.56
2023-03-31T03:11:34.811Z,99171.19
2023-03-31T03:14:07.682Z,99173.66
2023-03-31T03:16:38.458Z,99159.22
2023-03-31T03:19:07.554Z,99160.41
2023-03-31T03:21:35.773Z,99144.25
2023-03-31T03:24:03.648Z,99136.16
2023-03-31T03:26:35.253Z,99131.53
2023-03-31T03:29:03.011Z,99127.75
2023-03-31T03:31:30.859Z,99113.28
2023-03-31T03:33:58.537Z,99101.22
2023-03-31T03:36:26.222Z,99095.41
2023-03-31T03:38:53.997Z,99083.19
2023-03-31T03:41:21.655Z,99076.47
2023-03-31T03:43:50.764Z,99083.63
2023-03-31T03:46:18.416Z,99076.78
2023-03-31T03:48:46.372Z,99069.63
2023-03-31T03:51:14.046Z,99063.31
2023-03-31T03:53:41.711Z,99073.59
2023-03-31T03:56:09.347Z,99059.19
2023-03-31T03:58:37.140Z,99065.94
2023-03-31T04:01:06.799Z,99076.97
2023-03-31T04:06:19.518Z,99059.44
2023-03-31T04:08:47.436Z,99046.78
2023-03-31T04:11:18.878Z,99050.78
2023-03-31T04:13:47.567Z,99051.56
2023-03-31T04:16:17.379Z,99036.34
2023-03-31T04:18:46.238Z,99029.81
2023-03-31T04:21:22.927Z,99013.22
2023-03-31T04:23:58.968Z,99026.06
2023-03-31T04:26:31.529Z,98997.81
2023-03-31T04:29:00.368Z,99005.88
2023-03-31T04:31:31.024Z,98995.00
2023-03-31T04:34:02.639Z,98997.41
2023-03-31T04:36:31.487Z,98991.13
2023-03-31T04:38:59.429Z,98977.34
2023-03-31T04:41:28.632Z,98977.06
2023-03-31T04:43:56.413Z,98972.19
2023-03-31T04:46:24.199Z,98967.94
2023-03-31T04:48:53.352Z,98973.00
2023-03-31T04:51:21.327Z,98968.16
2023-03-31T04:53:49.010Z,98944.25
2023-03-31T04:56:16.653Z,98945.25
2023-03-31T04:58:44.649Z,98931.97
2023-03-31T05:01:13.672Z,98925.06
2023-03-31T05:03:42.508Z,98939.72
2023-03-31T05:06:11.894Z,98931.00
2023-03-31T05:08:39.615Z,98941.16
2023-03-31T05:11:07.459Z,98935.91
2023-03-31T05:13:35.321Z,98939.19
2023-03-31T05:16:09.018Z,98925.72
2023-03-31T05:18:36.918Z,98935.41
2023-03-31T05:21:13.737Z,98927.78
2023-03-31T05:23:41.948Z,98911.09
2023-03-31T05:26:09.750Z,98894.31
2023-03-31T05:28:37.529Z,98900.38
2023-03-31T05:31:06.833Z,98893.00
2023-03-31T05:33:34.740Z,98885.13
2023-03-31T05:36:02.567Z,98891.41
2023-03-31T05:38:31.890Z,98877.25
2023-03-31T05:40:59.606Z,98862.06
2023-03-31T05:43:27.332Z,98846.31
2023-03-31T05:45:55.282Z,98852.84
2023-03-31T05:48:23.004Z,98855.94
2023-03-31T05:50:50.892Z,98847.63
2023-03-31T05:53:18.582Z,98831.00
2023-03-31T05:55:47.757Z,98834.28
2023-03-31T05:58:15.577Z,98831.19
2023-03-31T06:00:44.682Z,98822.31
2023-03-31T06:03:12.669Z,98814.69
2023-03-31T06:05:41.712Z,98813.44
2023-03-31T06:08:09.457Z,98807.75
2023-03-31T06:13:22.432Z,98801.78
2023-03-31T06:15:55.540Z,98788.56
2023-03-31T06:18:23.578Z,98783.81
2023-03-31T06:20:52.152Z,98775.19
2023-03-31T06:23:19.793Z,98772.13
2023-03-31T06:25:51.989Z,98759.81
2023-03-31T06:28:20.091Z,98749.28
2023-03-31T06:30:49.122Z,98744.94
2023-03-31T06:33:17.250Z,98751.41
2023-03-31T06:35:45.012Z,98751.41
2023-03-31T06:38:12.662Z,98749.50
2023-03-31T06:40:40.285Z,98739.84
2023-03-31T06:43:08.121Z,98750.84
2023-03-31T06:45:35.884Z,98736.75
2023-03-31T06:48:05.228Z,98745.22
2023-03-31T06:50:32.977Z,98721.00
2023-03-31T06:55:36.416Z,98727.50
2023-03-31T06:58:04.614Z,98717.75
2023-03-31T07:00:32.640Z,98713.56
2023-03-31T07:03:01.367Z,98709.69
2023-03-31T07:05:31.169Z,98716.25
2023-03-31T07:07:59.804Z,98709.19
2023-03-31T07:10:30.271Z,98705.66
2023-03-31T07:12:57.948Z,98701.78
2023-03-31T07:15:28.255Z,98710.41
2023-03-31T07:18:01.953Z,98710.66
2023-03-31T07:20:32.734Z,98709.72
2023-03-31T07:23:00.514Z,98712.47
2023-03-31T07:25:28.267Z,98706.78
2023-03-31T07:27:56.051Z,98695.72
2023-03-31T07:30:24.715Z,98699.16
2023-03-31T07:32:54.542Z,98707.16
2023-03-31T07:35:23.855Z,98709.03
2023-03-31T07:37:53.167Z,98709.31
2023-03-31T07:40:25.313Z,98704.56
2023-03-31T07:42:53.585Z,98715.53
2023-03-31T07:45:22.320Z,98697.38
2023-03-31T07:47:50.606Z,98704.88
2023-03-31T07:50:19.085Z,98704.69
2023-03-31T07:52:47.473Z,98715.09
2023-03-31T07:55:17.777Z,98714.34
2023-03-31T07:57:46.900Z,98702.91
2023-03-31T08:00:16.154Z,98712.38
2023-03-31T08:02:44.444Z,98696.66
2023-03-31T08:05:13.540Z,98691.28
2023-03-31T08:07:43.537Z,98695.78
2023-03-31T08:10:13.134Z,98698.44
2023-03-31T08:12:42.214Z,98697.38
2023-03-31T08:15:10.365Z,98695.97
2023-03-31T08:17:38.214Z,98692.28
2023-03-31T08:20:08.397Z,98695.00
2023-03-31T08:22:36.575Z,98697.47
2023-03-31T08:25:04.993Z,98680.47
2023-03-31T08:27:34.788Z,98681.81
2023-03-31T08:30:04.595Z,98687.72
2023-03-31T08:32:33.298Z,98663.34
2023-03-31T08:35:01.469Z,98668.63
2023-03-31T08:37:29.313Z,98665.50
2023-03-31T08:39:57.176Z,98666.38
2023-03-31T08:42:32.397Z,98689.25
2023-03-31T08:45:02.509Z,98667.91
2023-03-31T08:47:33.947Z,98654.69
2023-03-31T08:50:05.143Z,98672.88
2023-03-31T08:52:36.042Z,98668.97
2023-03-31T08:55:07.764Z,98663.78
2023-03-31T08:57:42.235Z,98652.75
2023-03-31T09:00:17.988Z,98655.47
2023-03-31T09:02:53.152Z,98651.41
2023-03-31T09:05:31.157Z,98654.19
2023-03-31T09:08:04.016Z,98658.72
2023-03-31T09:10:41.198Z,98652.31
2023-03-31T09:13:19.571Z,98653.41
2023-03-31T09:15:50.049Z,98649.53
2023-03-31T09:18:22.400Z,98650.03
2023-03-31T09:20:54.745Z,98656.91
2023-03-31T09:23:57.920Z,98640.41
2023-03-31T09:34:39.277Z,98622.00
2023-03-31T09:37:06.939Z,98624.78
2023-03-31T09:39:34.690Z,98624.13
2023-03-31T09:42:02.330Z,98625.94
2023-03-31T09:44:37.984Z,98624.66
2023-03-31T09:47:11.072Z,98616.09
2023-03-31T09:49:40.917Z,98612.47
2023-03-31T09:52:27.314Z,98616.84
2023-03-31T09:55:28.359Z,98607.19
2023-03-31T09:58:07.849Z,98607.56
2023-03-31T10:00:36.060Z,98598.25
2023-03-31T10:03:07.583Z,98589.06
2023-03-31T10:05:38.451Z,98613.41
2023-03-31T10:08:25.696Z,98598.84
2023-03-31T10:10:55.666Z,98577.03
2023-03-31T10:13:25.748Z,98583.81
2023-03-31T10:15:54.711Z,98579.44
2023-03-31T10:18:34.661Z,98581.66
2023-03-31T10:21:05.249Z,98576.13
2023-03-31T10:23:35.223Z,98584.75
2023-03-31T10:26:04.018Z,98580.25
2023-03-31T10:28:34.114Z,98572.63
2023-03-31T10:31:03.311Z,98576.63
2023-03-31T10:33:34.681Z,98579.63
2023-03-31T10:36:09.644Z,98570.94
2023-03-31T10:38:40.142Z,98564.63
2023-03-31T10:41:08.321Z,98571.63
2023-03-31T10:43:39.679Z,98554.09
2023-03-31T10:46:07.736Z,98564.13
2023-03-31T10:48:38.722Z,98557.09
2023-03-31T10:51:14.831Z,98550.88
2023-03-31T10:53:50.439Z,98560.03
2023-03-31T10:56:29.323Z,98579.84
2023-03-31T10:59:10.270Z,98577.44
2023-03-31T11:01:46.081Z,98555.66
2023-03-31T11:04:34.026Z,98554.69
2023-03-31T11:07:07.494Z,98552.88
2023-03-31T11:09:44.416Z,98530.50
2023-03-31T11:12:20.376Z,98558.56
2023-03-31T11:14:58.402Z,98535.47
2023-03-31T11:17:34.577Z,98532.13
2023-03-31T11:20:13.272Z,98531.72
2023-03-31T11:22:48.333Z,98530.25
2023-03-31T11:25:25.178Z,98526.50
2023-03-31T11:28:04.428Z,98526.25
2023-03-31T11:30:35.347Z,98514.63
2023-03-31T11:33:21.244Z,98509.34
2023-03-31T11:36:06.791Z,98512.69
2023-03-31T11:38:48.652Z,98512.88
2023-03-31T11:41:18.943Z,98518.16
2023-03-31T11:43:49.510Z,98521.22
2023-03-31T11:46:20.519Z,98507.44
2023-03-31T11:48:53.166Z,98499.03
2023-03-31T11:51:26.195Z,98510.41
2023-03-31T11:53:57.682Z,98507.22
2023-03-31T11:56:27.578Z,98491.69
2023-03-31T11:58:56.681Z,98503.16
2023-03-31T12:01:26.672Z,98501.78
2023-03-31T12:04:21.068Z,98499.47
2023-03-31T12:06:49.458Z,98488.22
2023-03-31T12:09:24.282Z,98518.59
2023-03-31T12:11:55.102Z,98513.78
2023-03-31T12:14:28.847Z,98505.44
2023-03-31T12:17:00.847Z,98513.19
2023-03-31T12:19:30.049Z,98499.22
2023-03-31T12:22:02.123Z,98491.91
2023-03-31T12:24:32.319Z,98494.66
2023-03-31T12:27:04.900Z,98488.25
2023-03-31T12:29:35.378Z,98482.72
2023-03-31T12:32:06.991Z,98489.59
2023-03-31T12:34:39.171Z,98490.59
2023-03-31T12:37:22.235Z,98474.22
2023-03-31T12:40:01.081Z,98492.53
2023-03-31T12:42:49.145Z,98482.06
2023-03-31T12:45:25.621Z,98482.25
2023-03-31T12:48:04.424Z,98476.75
2023-03-31T12:50:44.159Z,98478.44
2023-03-31T12:53:17.810Z,98486.56
2023-03-31T12:55:47.710Z,98480.03
2023-03-31T12:58:40.042Z,98466.78
2023-03-31T13:01:10.878Z,98469.59
2023-03-31T13:03:46.451Z,98475.00
2023-03-31T13:06:49.039Z,98457.97
2023-03-31T13:10:05.370Z,98460.81
2023-03-31T13:12:36.027Z,98464.69
2023-03-31T13:15:05.614Z,98473.34
2023-03-31T13:17:35.667Z,98456.66
2023-03-31T13:20:19.218Z,98475.28
2023-03-31T13:22:49.468Z,98467.22
2023-03-31T13:25:41.073Z,98464.88
2023-03-31T13:28:17.478Z,98469.03
2023-03-31T13:30:51.516Z,98458.63
2023-03-31T13:33:22.504Z,98457.50
2023-03-31T13:35:52.884Z,98451.50
2023-03-31T13:38:29.223Z,98451.50
2023-03-31T13:41:02.323Z,98454.59
2023-03-31T13:43:46.012Z,98449.09
2023-03-31T13:46:36.625Z,98459.13
2023-03-31T13:49:12.212Z,98451.13
2023-03-31T13:51:49.034Z,98452.16
2023-03-31T13:54:34.347Z,98449.19
2023-03-31T13:57:43.163Z,98455.66
2023-03-31T14:00:25.886Z,98436.28
2023-03-31T14:03:01.040Z,98452.94
2023-03-31T14:05:32.826Z,98436.56
2023-03-31T14:08:03.631Z,98434.47
2023-03-31T14:10:33.235Z,98435.41
2023-03-31T14:13:09.433Z,98443.78
2023-03-31T14:15:40.673Z,98448.75
2023-03-31T14:18:09.092Z,98445.72
2023-03-31T14:20:43.614Z,98443.13
2023-03-31T14:23:28.668Z,98435.88
2023-03-31T14:26:01.940Z,98451.72
2023-03-31T14:28:42.152Z,98445.69
2023-03-31T14:31:21.075Z,98448.16
2023-03-31T14:34:01.200Z,98440.00
2023-03-31T14:36:33.751Z,98418.97
2023-03-31T14:39:04.629Z,98419.69
2023-03-31T14:41:32.511Z,98407.00
2023-03-31T14:44:04.020Z,98407.56
2023-03-31T14:46:37.030Z,98406.88
2023-03-31T14:49:08.519Z,98403.13
2023-03-31T14:51:36.357Z,98395.84
2023-03-31T14:54:04.393Z,98401.19
2023-03-31T14:56:36.307Z,98407.69
2023-03-31T14:59:04.782Z,98399.34
2023-03-31T15:01:35.770Z,98404.88
2023-03-31T15:04:07.788Z,98408.19
2023-03-31T15:06:35.999Z,98402.84
2023-03-31T15:09:05.164Z,98401.38
2023-03-31T15:11:33.090Z,98412.97
2023-03-31T15:14:05.681Z,98405.91
2023-03-31T15:16:41.876Z,98399.13
2023-03-31T15:19:16.275Z,98407.72
2023-03-31T15:21:44.993Z,98403.84
2023-03-31T15:24:13.521Z,98392.25
2023-03-31T15:26:43.507Z,98373.00
2023-03-31T15:29:16.166Z,98386.00
2023-03-31T15:31:45.366Z,98394.91
2023-03-31T15:34:16.097Z,98393.69
2023-03-31T15:36:44.398Z,98401.03
2023-03-31T15:42:23.131Z,98409.03
2023-03-31T15:44:56.261Z,98416.19
2023-03-31T15:47:52.270Z,98391.72
2023-03-31T15:50:22.956Z,98388.88
2023-03-31T15:52:53.820Z,98406.94
2023-03-31T15:55:27.282Z,98407.75
2023-03-31T15:57:56.170Z,98399.81
2023-03-31T16:00:45.632Z,98397.81
2023-03-31T16:03:18.466Z,98395.38
2023-03-31T16:08:44.580Z,98382.00
2023-03-31T16:11:15.066Z,98371.81
2023-03-31T16:13:45.011Z,98363.69
2023-03-31T16:16:14.847Z,98380.91
2023-03-31T16:18:46.499Z,98391.53
2023-03-31T16:21:16.368Z,98386.31
2023-03-31T16:23:45.421Z,98380.91
2023-03-31T16:26:13.260Z,98374.97
2023-03-31T16:28:41.067Z,98372.44
2023-03-31T16:31:29.392Z,98388.59
2023-03-31T16:33:58.970Z,98369.69
2023-03-31T16:36:27.270Z,98373.63
2023-03-31T16:38:55.772Z,98368.22
2023-03-31T16:41:24.356Z,98377.59
2023-03-31T16:43:54.219Z,98369.59
2023-03-31T16:46:22.404Z,98379.50
2023-03-31T16:48:50.431Z,98377.25
2023-03-31T16:51:20.100Z,98380.94
2023-03-31T16:53:50.920Z,98375.00
2023-03-31T16:56:18.628Z,98368.78
2023-03-31T16:58:46.235Z,98381.31
2023-03-31T17:01:13.963Z,98373.31
2023-03-31T17:03:42.946Z,98374.56
2023-03-31T17:06:12.625Z,98381.75
2023-03-31T17:08:41.866Z,98378.50
2023-03-31T17:11:11.779Z,98376.25
2023-03-31T17:16:32.666Z,98364.69
2023-03-31T17:19:08.104Z,98362.59
2023-03-31T17:21:37.366Z,98370.44
2023-03-31T17:24:08.753Z,98371.03
2023-03-31T17:26:37.709Z,98367.63
2023-03-31T17:29:05.810Z,98374.59
2023-03-31T17:31:33.540Z,98379.34
2023-03-31T17:34:01.562Z,98379.50
2023-03-31T17:36:29.890Z,98398.44
2023-03-31T17:39:00.155Z,98383.91
2023-03-31T17:41:30.483Z,98400.91
2023-03-31T17:43:58.769Z,98391.94
2023-03-31T17:46:26.520Z,98386.94
2023-03-31T17:48:56.542Z,98399.31
2023-03-31T17:51:24.225Z,98394.31
2023-03-31T17:53:52.107Z,98391.13
2023-03-31T17:56:19.823Z,98377.00
2023-03-31T17:58:49.240Z,98384.22
2023-03-31T18:01:17.024Z,98385.94
2023-03-31T18:03:50.867Z,98394.53
2023-03-31T18:06:19.285Z,98390.72
2023-03-31T18:08:47.307Z,98394.28
2023-03-31T18:11:15.694Z,98383.09
2023-03-31T18:17:16.430Z,98390.28
2023-03-31T18:19:45.849Z,98392.53
2023-03-31T18:22:15.336Z,98396.13
2023-03-31T18:24:44.515Z,98394.63
2023-03-31T18:27:12.579Z,98395.09
2023-03-31T18:29:40.639Z,98396.13
2023-03-31T18:32:09.879Z,98385.00
2023-03-31T18:34:38.305Z,98399.44
2023-03-31T18:37:08.084Z,98402.16
2023-03-31T18:39:36.053Z,98400.72
2023-03-31T18:42:04.375Z,98413.09
2023-03-31T18:44:32.724Z,98409.09
2023-03-31T18:47:00.541Z,98417.09
2023-03-31T18:49:28.465Z,98403.91
2023-03-31T18:51:56.446Z,98407.50
2023-03-31T18:54:25.957Z,98403.69
2023-03-31T18:56:53.746Z,98412.25
2023-03-31T18:59:21.601Z,98405.50
2023-03-31T19:01:49.271Z,98394.84
2023-03-31T19:04:17.061Z,98414.09
2023-03-31T19:06:44.904Z,98405.91
2023-03-31T19:09:12.702Z,98419.44
2023-03-31T19:11:41.835Z,98399.75
2023-03-31T19:14:09.544Z,98404.75
2023-03-31T19:16:42.659Z,98403.59
2023-03-31T19:19:10.804Z,98394.53
2023-03-31T19:21:38.646Z,98405.72
2023-03-31T19:24:06.981Z,98406.84
2023-03-31T19:26:34.645Z,98401.28
2023-03-31T19:29:04.352Z,98401.09
2023-03-31T19:31:38.245Z,98416.34
2023-03-31T19:34:06.274Z,98392.16
2023-03-31T19:36:34.337Z,98403.66
2023-03-31T19:39:03.682Z,98401.94
2023-03-31T19:41:31.609Z,98412.25
2023-03-31T19:43:59.374Z,98397.91
2023-03-31T19:46:28.650Z,98399.91
2023-03-31T19:48:56.633Z,98403.19
2023-03-31T19:51:24.338Z,98410.00
2023-03-31T19:53:52.049Z,98398.41
2023-03-31T19:56:25.216Z,98401.50
2023-03-31T19:58:53.646Z,98396.09
2023-03-31T20:01:23.770Z,98395.09
2023-03-31T20:03:54.676Z,98387.69
2023-03-31T20:06:24.021Z,98389.84
2023-03-31T20:08:53.477Z,98397.91
2023-03-31T20:11:22.000Z,98394.03
2023-03-31T20:13:50.213Z,98394.22
2023-03-31T20:16:19.358Z,98382.06
2023-03-31T20:18:48.743Z,98377.44
2023-03-31T20:21:20.423Z,98395.19
2023-03-31T20:23:48.329Z,98372.69
2023-03-31T20:26:17.472Z,98382.69
2023-03-31T20:28:45.384Z,98389.63
2023-03-31T20:31:17.934Z,98377.84
2023-03-31T20:33:46.578Z,98377.44
2023-03-31T20:36:15.775Z,98379.56
2023-03-31T20:38:46.901Z,98383.03
2023-03-31T20:41:15.745Z,98374.28
2023-03-31T20:43:43.915Z,98373.91
2023-03-31T20:46:11.767Z,98370.50
2023-03-31T20:48:40.827Z,98365.53
2023-03-31T20:51:10.896Z,98377.41
2023-03-31T20:53:42.699Z,98377.00
2023-03-31T20:56:12.570Z,98371.59
2023-03-31T20:58:43.270Z,98374.47
2023-03-31T21:01:11.809Z,98377.28
2023-03-31T21:03:39.680Z,98379.09
2023-03-31T21:06:11.214Z,98393.41
2023-03-31T21:08:39.983Z,98391.25
2023-03-31T21:11:07.675Z,98375.88
2023-03-31T21:13:37.156Z,98385.31
2023-03-31T21:16:05.766Z,98373.91
2023-03-31T21:18:34.836Z,98388.66
2023-03-31T21:21:04.865Z,98395.41
2023-03-31T21:23:33.048Z,98384.09
2023-03-31T21:26:03.373Z,98375.75
2023-03-31T21:28:32.730Z,98391.03
2023-03-31T21:31:04.396Z,98376.50
2023-03-31T21:33:32.777Z,98396.72
2023-03-31T21:36:00.615Z,98384.88
2023-03-31T21:38:28.924Z,98391.25
2023-03-31T21:40:57.576Z,98391.53
2023-03-31T21:43:26.089Z,98380.91
2023-03-31T21:45:58.553Z,98387.59
2023-03-31T21:48:27.877Z,98389.22
2023-03-31T21:50:56.370Z,98384.66
2023-03-31T21:53:24.302Z,98375.88
2023-03-31T21:55:55.498Z,98393.88
2023-03-31T21:58:25.152Z,98385.41
2023-03-31T22:00:52.932Z,98387.66
2023-03-31T22:03:27.280Z,98380.41
2023-03-31T22:05:57.283Z,98397.19
2023-03-31T22:08:25.394Z,98406.97
2023-03-31T22:10:53.697Z,98376.78
2023-03-31T22:13:22.501Z,98384.69
2023-03-31T22:15:50.430Z,98395.94
2023-03-31T22:18:18.305Z,98384.06
2023-03-31T22:20:46.742Z,98385.09
2023-03-31T22:23:16.684Z,98392.63
2023-03-31T22:25:44.444Z,98392.88
2023-03-31T22:28:12.620Z,98372.38
2023-03-31T22:30:40.447Z,98393.97
2023-03-31T22:33:08.128Z,98370.88
2023-03-31T22:35:36.073Z,98382.25
2023-03-31T22:38:05.649Z,98390.53
2023-03-31T22:40:35.750Z,98381.66
2023-03-31T22:43:03.935Z,98379.28
2023-03-31T22:45:31.685Z,98380.28
2023-03-31T22:47:59.666Z,98377.28
2023-03-31T22:50:27.489Z,98372.53
2023-03-31T22:52:55.125Z,98370.81
2023-03-31T22:55:22.964Z,98381.91
2023-03-31T22:57:52.275Z,98376.53
2023-03-31T23:00:20.457Z,98380.09
2023-03-31T23:02:48.161Z,98385.28
2023-03-31T23:05:15.935Z,98388.16
2023-03-31T23:07:44.807Z,98382.31
2023-03-31T23:10:12.615Z,98384.09
2023-03-31T23:12:40.292Z,98387.34
2023-03-31T23:15:09.848Z,98380.88
2023-03-31T23:17:37.593Z,98389.16
2023-03-31T23:20:06.834Z,98389.66
2023-03-31T23:22:35.223Z,98390.38
2023-03-31T23:25:02.910Z,98371.81
2023-03-31T23:27:30.664Z,98374.88
2023-03-31T23:29:58.339Z,98377.03
2023-03-31T23:32:27.428Z,98372.13
2023-03-31T23:34:55.043Z,98370.28
2023-03-31T23:37:22.760Z,98388.25
2023-03-31T23:39:50.799Z,98369.97
2023-03-31T23:42:20.652Z,98367.88
2023-03-31T23:44:48.319Z,98363.31
2023-03-31T23:47:16.065Z,98368.38
2023-03-31T23:49:45.204Z,98365.50
2023-03-31T23:52:12.881Z,98364.50
2023-03-31T23:54:40.563Z,98362.28
2023-03-31T23:57:08.447Z,98358.47
2023-03-31T23:59:36.468Z,98361.63
